METAR Data
IDs: Format: Raw Decoded Include TAF

Data at: 2121 UTC 06 Dec 2019

KTYS 062053Z 11003KT 10SM FEW045 BKN060 OVC090 11/01 A3014 RMK AO2 SLP208 T01060011 53001
KTYS 061953Z 00000KT 10SM FEW075 BKN095 OVC200 11/01 A3012 RMK AO2 SLP201 T01110011
KTYS 061853Z 33004KT 10SM BKN075 OVC250 11/01 A3012 RMK AO2 SLP201 T01060011
KTYS 061753Z 00000KT 10SM SCT060 OVC100 10/01 A3014 RMK AO2 SLP207 60000 T01000011 10100 20044 58010
KTYS 061653Z 00000KT 10SM FEW070 OVC090 09/01 A3016 RMK AO2 RAB27E41 SLP215 P0000 T00940006 $
KTYS 061553Z 02006KT 10SM BKN110 BKN180 08/01 A3018 RMK AO2 SLP219 T00780011 $
KTYS 061453Z 08004KT 10SM BKN090 BKN180 OVC250 07/01 A3017 RMK AO2 SLP219 VIRGA SE-S T00670006 50008 $
KTYS 061353Z 00000KT 10SM SCT080 BKN100 OVC200 06/01 A3017 RMK AO2 SLP218 T00560006 $
KTYS 061253Z 00000KT 10SM SCT090 BKN110 04/00 A3016 RMK AO2 SLP215 T00440000 $
KTYS 061153Z 04003KT 10SM OVC110 04/00 A3015 RMK AO2 SLP210 T00440000 10056 20033 56003 $
KTYS 061053Z 00000KT 10SM BKN110 04/M01 A3015 RMK AO2 SLP210 T00441006 $
KTYS 060953Z 03004KT 10SM BKN120 04/M01 A3015 RMK AO2 SLP210 T00441006 $
KTYS 060853Z 08003KT 10SM OVC090 05/01 A3015 RMK AO2 SLP211 T00500011 50002 $
KTYS 060753Z 35005KT 10SM OVC095 05/00 A3016 RMK AO2 SLP211 T00500000 $
KTYS 060653Z 00000KT 10SM OVC110 05/M02 A3015 RMK AO2 SLP210 T00501017 $
KTYS 060553Z 00000KT 10SM SCT150 OVC250 04/M01 A3015 RMK AO2 SLP209 T00391006 10100 20033 58000 $
KTYS 060453Z 05003KT 10SM SCT250 03/M02 A3015 RMK AO2 SLP211 T00331017 401440006 $
KTYS 060353Z 00000KT 10SM SCT250 05/M02 A3016 RMK AO2 SLP212 T00501017 $
KTYS 060253Z 00000KT 10SM CLR 06/M02 A3015 RMK AO2 SLP210 T00561017 53007 $
KTYS 060153Z 00000KT 10SM CLR 07/M02 A3014 RMK AO2 SLP210 T00721022 $
KTYS 060053Z 07003KT 10SM CLR 08/M02 A3013 RMK AO2 SLP206 T00781017 $
KTYS 052353Z 00000KT 10SM CLR 09/M02 A3013 RMK AO2 SLP204 T00941022 10144 20094 53003 $
KTYS 052253Z 22003KT 10SM CLR 12/M03 A3012 RMK AO2 SLP201 T01221028 $
KTYS 052153Z 18005KT 10SM CLR 13/M02 A3012 RMK AO2 SLP199 T01281022 $
KTYS 052053Z VRB05KT 10SM FEW200 14/M02 A3012 RMK AO2 SLP199 T01441022 55003 $
KTYS 051953Z 19004KT 10SM CLR 14/M03 A3011 RMK AO2 SLP198 T01441028 $
KTYS 051853Z 22005KT 10SM FEW200 14/M02 A3012 RMK AO2 SLP198 T01391022 $
KTYS 051753Z 20006KT 10SM FEW200 13/M02 A3013 RMK AO2 SLP203 T01281022 10133 20006 58003 $
KTYS 051653Z VRB04KT 10SM FEW180 12/M01 A3015 RMK AO2 SLP208 T01171006 $
KTYS 051553Z 24003KT 10SM FEW180 FEW250 10/M01 A3016 RMK AO2 SLP212 T01001011 $
KTYS 051453Z 00000KT 10SM FEW180 FEW250 08/00 A3014 RMK AO2 SLP206 T00780000 53021 $
KTYS 051353Z 07003KT 10SM FEW180 FEW250 03/M02 A3010 RMK AO2 SLP196 T00281017 $
KTYS 051253Z 00000KT 10SM FEW080 FEW250 01/M03 A3009 RMK AO2 SLP193 T00111028 $
KTYS 051153Z 00000KT 10SM FEW080 01/M03 A3007 RMK AO2 SLP186 T00111028 10056 20011 53013 $
KTYS 051053Z 00000KT 10SM CLR 02/M03 A3005 RMK AO2 SLP181 T00171028 $
KTYS 050953Z 19003KT 10SM CLR 03/M02 A3005 RMK AO2 SLP179 T00281022 $